SLI040 MMMX-MMOX
Flight info
| Callsign | SLI040 |
|---|---|
| Flight time | 0h 39m |
| Altitude | 31000 |
| Route | TEVOS2B TEVOS UT113 OAX |
| Aircraft | E190/M-SDE3GILORVW/S |
Departure
| Time | 2026-04-25 07:55 |
|---|---|
| Airport | Mexico City Benito Juárez International Airport (MMMX) |
Arrival
| Time | 2026-04-25 08:35 |
|---|---|
| Airport | Xoxocotlán International Airport (MMOX) |
| Time | Latitude | Longitude | Altitude | Speed | Heading |
|---|---|---|---|---|---|
| 2026-04-25 07:37 | 19.42131 | -99.08132 | 7301 ft | 0 kts | 212° |
| 2026-04-25 07:47 | 19.42141 | -99.08126 | 7301 ft | 2 kts | 212° |
| 2026-04-25 07:47 | 19.42152 | -99.08118 | 7301 ft | 2 kts | 220° |
| 2026-04-25 07:47 | 19.42157 | -99.08113 | 7301 ft | 1 kts | 246° |
| 2026-04-25 07:48 | 19.42159 | -99.08108 | 7301 ft | 1 kts | 284° |
| 2026-04-25 07:48 | 19.42158 | -99.08102 | 7301 ft | 1 kts | 297° |
| 2026-04-25 07:48 | 19.42155 | -99.08097 | 7302 ft | 1 kts | 301° |
| 2026-04-25 07:48 | 19.42154 | -99.08095 | 7302 ft | 0 kts | 301° |
| 2026-04-25 07:50 | 19.42157 | -99.08101 | 7301 ft | 3 kts | 301° |
| 2026-04-25 07:50 | 19.42174 | -99.08130 | 7302 ft | 7 kts | 301° |
| 2026-04-25 07:50 | 19.42202 | -99.08178 | 7301 ft | 8 kts | 302° |
| 2026-04-25 07:51 | 19.42248 | -99.08203 | 7301 ft | 8 kts | 350° |
| 2026-04-25 07:51 | 19.42314 | -99.08199 | 7301 ft | 11 kts | 5° |
| 2026-04-25 07:51 | 19.42387 | -99.08199 | 7301 ft | 10 kts | 353° |
| 2026-04-25 07:51 | 19.42420 | -99.08225 | 7301 ft | 8 kts | 318° |
| 2026-04-25 07:52 | 19.42477 | -99.08261 | 7301 ft | 11 kts | 330° |
| 2026-04-25 07:52 | 19.42540 | -99.08301 | 7301 ft | 10 kts | 322° |
| 2026-04-25 07:52 | 19.42575 | -99.08365 | 7301 ft | 10 kts | 295° |
| 2026-04-25 07:52 | 19.42605 | -99.08431 | 7301 ft | 10 kts | 295° |
| 2026-04-25 07:53 | 19.42632 | -99.08499 | 7301 ft | 11 kts | 292° |
| 2026-04-25 07:53 | 19.42664 | -99.08572 | 7302 ft | 10 kts | 313° |
| 2026-04-25 07:53 | 19.42715 | -99.08556 | 7303 ft | 10 kts | 56° |
| 2026-04-25 07:53 | 19.42823 | -99.08364 | 7302 ft | 58 kts | 59° |
| 2026-04-25 07:54 | 19.43120 | -99.07835 | 7303 ft | 109 kts | 59° |
| 2026-04-25 07:54 | 19.43588 | -99.06995 | 7301 ft | 155 kts | 60° |
| 2026-04-25 07:54 | 19.44195 | -99.05886 | 7333 ft | 190 kts | 60° |
| 2026-04-25 07:54 | 19.44887 | -99.04645 | 7859 ft | 199 kts | 59° |
| 2026-04-25 07:55 | 19.45598 | -99.03418 | 7838 ft | 203 kts | 58° |
| 2026-04-25 07:55 | 19.46456 | -99.02045 | 7723 ft | 238 kts | 57° |
| 2026-04-25 07:55 | 19.47373 | -99.00573 | 9046 ft | 231 kts | 58° |
| 2026-04-25 07:55 | 19.48122 | -98.99098 | 9398 ft | 229 kts | 76° |
| 2026-04-25 07:56 | 19.48185 | -98.97415 | 9998 ft | 234 kts | 102° |
| 2026-04-25 07:56 | 19.47541 | -98.95823 | 10640 ft | 239 kts | 126° |
| 2026-04-25 07:56 | 19.46418 | -98.94508 | 11284 ft | 243 kts | 135° |
| 2026-04-25 07:56 | 19.45205 | -98.93250 | 11964 ft | 248 kts | 135° |
| 2026-04-25 07:57 | 19.43935 | -98.91958 | 12610 ft | 257 kts | 135° |
| 2026-04-25 07:57 | 19.42632 | -98.90651 | 13449 ft | 258 kts | 136° |
| 2026-04-25 07:57 | 19.41320 | -98.89340 | 14249 ft | 261 kts | 136° |
| 2026-04-25 07:57 | 19.39984 | -98.88026 | 14982 ft | 264 kts | 136° |
| 2026-04-25 07:58 | 19.38566 | -98.86670 | 15412 ft | 284 kts | 137° |
| 2026-04-25 07:58 | 19.37034 | -98.85256 | 15897 ft | 300 kts | 138° |
| 2026-04-25 07:58 | 19.35421 | -98.83782 | 16507 ft | 310 kts | 139° |
| 2026-04-25 07:58 | 19.33698 | -98.82360 | 17106 ft | 323 kts | 148° |
| 2026-04-25 07:59 | 19.31562 | -98.81511 | 17342 ft | 345 kts | 172° |
| 2026-04-25 07:59 | 19.29107 | -98.81498 | 17674 ft | 363 kts | 185° |
| 2026-04-25 07:59 | 19.26559 | -98.81773 | 18287 ft | 371 kts | 187° |
| 2026-04-25 07:59 | 19.23982 | -98.82052 | 18986 ft | 374 kts | 186° |
| 2026-04-25 08:00 | 19.21385 | -98.82329 | 19689 ft | 376 kts | 187° |
| 2026-04-25 08:00 | 19.18775 | -98.82624 | 20345 ft | 380 kts | 187° |
| 2026-04-25 08:00 | 19.16132 | -98.82929 | 20943 ft | 384 kts | 186° |
| 2026-04-25 08:00 | 19.13448 | -98.83109 | 21568 ft | 389 kts | 184° |
| 2026-04-25 08:01 | 19.10725 | -98.83237 | 22187 ft | 394 kts | 184° |
| 2026-04-25 08:01 | 19.07975 | -98.83378 | 22798 ft | 398 kts | 184° |
| 2026-04-25 08:01 | 19.05194 | -98.83530 | 23374 ft | 403 kts | 185° |
| 2026-04-25 08:01 | 19.02384 | -98.83690 | 23882 ft | 405 kts | 185° |
| 2026-04-25 08:02 | 18.99566 | -98.83853 | 24415 ft | 407 kts | 185° |
| 2026-04-25 08:02 | 18.96732 | -98.84018 | 24904 ft | 409 kts | 185° |
| 2026-04-25 08:02 | 18.93886 | -98.84185 | 25391 ft | 411 kts | 186° |
| 2026-04-25 08:02 | 18.91040 | -98.84494 | 25880 ft | 411 kts | 192° |
| 2026-04-25 08:03 | 18.88219 | -98.85003 | 26378 ft | 412 kts | 193° |
| 2026-04-25 08:03 | 18.85383 | -98.85519 | 26865 ft | 414 kts | 193° |
| 2026-04-25 08:03 | 18.82531 | -98.86007 | 27318 ft | 417 kts | 192° |
| 2026-04-25 08:03 | 18.79659 | -98.86479 | 27782 ft | 419 kts | 192° |
| 2026-04-25 08:04 | 18.76772 | -98.86944 | 28224 ft | 421 kts | 192° |
| 2026-04-25 08:04 | 18.73869 | -98.87407 | 28632 ft | 423 kts | 192° |
| 2026-04-25 08:04 | 18.70958 | -98.87872 | 29046 ft | 425 kts | 192° |
| 2026-04-25 08:04 | 18.68029 | -98.88339 | 29434 ft | 426 kts | 192° |
| 2026-04-25 08:05 | 18.65093 | -98.88807 | 29818 ft | 428 kts | 193° |
| 2026-04-25 08:05 | 18.62141 | -98.89278 | 30054 ft | 430 kts | 193° |
| 2026-04-25 08:05 | 18.59177 | -98.89749 | 30238 ft | 432 kts | 193° |
| 2026-04-25 08:05 | 18.56197 | -98.90223 | 30463 ft | 434 kts | 193° |
| 2026-04-25 08:06 | 18.53201 | -98.90699 | 30665 ft | 436 kts | 192° |
| 2026-04-25 08:06 | 18.50182 | -98.91179 | 30709 ft | 443 kts | 192° |
| 2026-04-25 08:06 | 18.47083 | -98.91555 | 30714 ft | 456 kts | 184° |
| 2026-04-25 08:06 | 18.43916 | -98.91002 | 30846 ft | 470 kts | 163° |
| 2026-04-25 08:07 | 18.41015 | -98.89331 | 30912 ft | 485 kts | 144° |
| 2026-04-25 08:07 | 18.38675 | -98.86721 | 30970 ft | 496 kts | 129° |
| 2026-04-25 08:07 | 18.36719 | -98.83676 | 30754 ft | 507 kts | 123° |
| 2026-04-25 08:07 | 18.34860 | -98.80516 | 30785 ft | 510 kts | 124° |
| 2026-04-25 08:08 | 18.30923 | -98.74284 | 30796 ft | 512 kts | 126° |
| 2026-04-25 08:08 | 18.26910 | -98.68146 | 30795 ft | 512 kts | 126° |
| 2026-04-25 08:09 | 18.22857 | -98.61974 | 30801 ft | 513 kts | 126° |
| 2026-04-25 08:09 | 18.18808 | -98.55810 | 30813 ft | 512 kts | 126° |
| 2026-04-25 08:10 | 18.14755 | -98.49648 | 30827 ft | 512 kts | 126° |
| 2026-04-25 08:10 | 18.10775 | -98.43430 | 30845 ft | 513 kts | 125° |
| 2026-04-25 08:11 | 18.06822 | -98.37205 | 30861 ft | 512 kts | 125° |
| 2026-04-25 08:11 | 18.02850 | -98.30989 | 30877 ft | 512 kts | 125° |
| 2026-04-25 08:12 | 17.98881 | -98.24781 | 30888 ft | 512 kts | 125° |
| 2026-04-25 08:12 | 17.94912 | -98.18582 | 30899 ft | 512 kts | 125° |
| 2026-04-25 08:13 | 17.90938 | -98.12382 | 30919 ft | 512 kts | 125° |
| 2026-04-25 08:14 | 17.85644 | -98.04132 | 30926 ft | 512 kts | 125° |
| 2026-04-25 08:14 | 17.81667 | -97.97938 | 30943 ft | 512 kts | 125° |
| 2026-04-25 08:15 | 17.77685 | -97.91748 | 30956 ft | 512 kts | 125° |
| 2026-04-25 08:15 | 17.73706 | -97.85563 | 30969 ft | 511 kts | 125° |
| 2026-04-25 08:16 | 17.69728 | -97.79387 | 30992 ft | 511 kts | 125° |
| 2026-04-25 08:16 | 17.65575 | -97.73343 | 31004 ft | 511 kts | 128° |
| 2026-04-25 08:17 | 17.61377 | -97.67457 | 30994 ft | 498 kts | 128° |
| 2026-04-25 08:17 | 17.57255 | -97.61629 | 31016 ft | 498 kts | 128° |
| 2026-04-25 08:17 | 17.55200 | -97.58719 | 30833 ft | 492 kts | 128° |
| 2026-04-25 08:18 | 17.53194 | -97.55874 | 30461 ft | 477 kts | 128° |
| 2026-04-25 08:18 | 17.51242 | -97.53108 | 29781 ft | 470 kts | 128° |
| 2026-04-25 08:18 | 17.49318 | -97.50385 | 29218 ft | 460 kts | 127° |
| 2026-04-25 08:18 | 17.47429 | -97.47713 | 28560 ft | 453 kts | 127° |
| 2026-04-25 08:19 | 17.45577 | -97.45092 | 27963 ft | 444 kts | 127° |
| 2026-04-25 08:19 | 17.43770 | -97.42495 | 27411 ft | 436 kts | 126° |
| 2026-04-25 08:19 | 17.42068 | -97.39889 | 26796 ft | 432 kts | 124° |
| 2026-04-25 08:19 | 17.40397 | -97.37297 | 26258 ft | 427 kts | 124° |
| 2026-04-25 08:20 | 17.38733 | -97.34734 | 25663 ft | 425 kts | 124° |
| 2026-04-25 08:20 | 17.37068 | -97.32187 | 25119 ft | 423 kts | 124° |
| 2026-04-25 08:20 | 17.35409 | -97.29658 | 24555 ft | 420 kts | 124° |
| 2026-04-25 08:20 | 17.33760 | -97.27149 | 23999 ft | 416 kts | 124° |
| 2026-04-25 08:21 | 17.32128 | -97.24666 | 23427 ft | 412 kts | 124° |
| 2026-04-25 08:21 | 17.30512 | -97.22213 | 22908 ft | 405 kts | 124° |
| 2026-04-25 08:21 | 17.28946 | -97.19833 | 22361 ft | 401 kts | 124° |
| 2026-04-25 08:21 | 17.27370 | -97.17438 | 21838 ft | 398 kts | 124° |
| 2026-04-25 08:22 | 17.25806 | -97.15063 | 21317 ft | 395 kts | 124° |
| 2026-04-25 08:22 | 17.24249 | -97.12702 | 20788 ft | 393 kts | 124° |
| 2026-04-25 08:22 | 17.22703 | -97.10357 | 20269 ft | 390 kts | 124° |
| 2026-04-25 08:22 | 17.21176 | -97.08043 | 19750 ft | 383 kts | 124° |
| 2026-04-25 08:23 | 17.19648 | -97.05784 | 19249 ft | 378 kts | 125° |
| 2026-04-25 08:23 | 17.18121 | -97.03572 | 18745 ft | 373 kts | 125° |
| 2026-04-25 08:23 | 17.16616 | -97.01392 | 18258 ft | 368 kts | 124° |
| 2026-04-25 08:23 | 17.15135 | -96.99236 | 17765 ft | 361 kts | 124° |
| 2026-04-25 08:24 | 17.13685 | -96.97122 | 17298 ft | 355 kts | 124° |
| 2026-04-25 08:24 | 17.12256 | -96.95041 | 16837 ft | 350 kts | 125° |
| 2026-04-25 08:24 | 17.10848 | -96.92987 | 16365 ft | 345 kts | 125° |
| 2026-04-25 08:24 | 17.09464 | -96.90962 | 15908 ft | 339 kts | 125° |
| 2026-04-25 08:25 | 17.08127 | -96.89011 | 15437 ft | 321 kts | 125° |
| 2026-04-25 08:25 | 17.06860 | -96.87164 | 15040 ft | 305 kts | 125° |
| 2026-04-25 08:25 | 17.05655 | -96.85411 | 14653 ft | 290 kts | 125° |
| 2026-04-25 08:25 | 17.04499 | -96.83728 | 14270 ft | 279 kts | 125° |
| 2026-04-25 08:26 | 17.03401 | -96.82128 | 13932 ft | 262 kts | 125° |
| 2026-04-25 08:26 | 17.02366 | -96.80623 | 13479 ft | 251 kts | 125° |
| 2026-04-25 08:26 | 17.01367 | -96.79169 | 13046 ft | 240 kts | 125° |
| 2026-04-25 08:26 | 17.00413 | -96.77780 | 12800 ft | 233 kts | 125° |
| 2026-04-25 08:27 | 16.99464 | -96.76398 | 12520 ft | 235 kts | 125° |
| 2026-04-25 08:27 | 16.98506 | -96.75018 | 12248 ft | 232 kts | 128° |
| 2026-04-25 08:27 | 16.97304 | -96.73910 | 11914 ft | 233 kts | 149° |
| 2026-04-25 08:27 | 16.95799 | -96.73272 | 11582 ft | 233 kts | 162° |
| 2026-04-25 08:28 | 16.94241 | -96.72811 | 11263 ft | 233 kts | 165° |
| 2026-04-25 08:28 | 16.92681 | -96.72367 | 10956 ft | 232 kts | 165° |
| 2026-04-25 08:28 | 16.91134 | -96.71908 | 10649 ft | 230 kts | 164° |
| 2026-04-25 08:28 | 16.89600 | -96.71439 | 10345 ft | 229 kts | 164° |
| 2026-04-25 08:29 | 16.88076 | -96.70964 | 10042 ft | 228 kts | 163° |
| 2026-04-25 08:29 | 16.86561 | -96.70487 | 9723 ft | 227 kts | 163° |
| 2026-04-25 08:29 | 16.85059 | -96.70013 | 9438 ft | 224 kts | 163° |
| 2026-04-25 08:29 | 16.83542 | -96.69697 | 9159 ft | 222 kts | 184° |
| 2026-04-25 08:30 | 16.82152 | -96.70303 | 8905 ft | 220 kts | 224° |
| 2026-04-25 08:30 | 16.81428 | -96.71681 | 8703 ft | 219 kts | 255° |
| 2026-04-25 08:30 | 16.81191 | -96.73256 | 8492 ft | 221 kts | 268° |
| 2026-04-25 08:30 | 16.81382 | -96.74809 | 8338 ft | 218 kts | 287° |
| 2026-04-25 08:31 | 16.82181 | -96.76126 | 8255 ft | 219 kts | 320° |
| 2026-04-25 08:31 | 16.83590 | -96.76657 | 8209 ft | 220 kts | 356° |
| 2026-04-25 08:31 | 16.85126 | -96.76546 | 8039 ft | 226 kts | 11° |
| 2026-04-25 08:31 | 16.86642 | -96.76215 | 7807 ft | 210 kts | 10° |
| 2026-04-25 08:32 | 16.87992 | -96.75929 | 7620 ft | 190 kts | 12° |
| 2026-04-25 08:32 | 16.89239 | -96.75641 | 7378 ft | 178 kts | 12° |
| 2026-04-25 08:32 | 16.90413 | -96.75373 | 7190 ft | 169 kts | 12° |
| 2026-04-25 08:32 | 16.91590 | -96.75107 | 6790 ft | 176 kts | 12° |
| 2026-04-25 08:33 | 16.92739 | -96.74847 | 6473 ft | 160 kts | 13° |
| 2026-04-25 08:33 | 16.93755 | -96.74491 | 6114 ft | 149 kts | 19° |
| 2026-04-25 08:33 | 16.94707 | -96.74155 | 5790 ft | 139 kts | 18° |
| 2026-04-25 08:33 | 16.95599 | -96.73862 | 5584 ft | 132 kts | 17° |
| 2026-04-25 08:34 | 16.96489 | -96.73590 | 5446 ft | 133 kts | 16° |
| 2026-04-25 08:34 | 16.97405 | -96.73318 | 5282 ft | 140 kts | 16° |
| 2026-04-25 08:34 | 16.98334 | -96.73044 | 5114 ft | 139 kts | 15° |
| 2026-04-25 08:34 | 16.99231 | -96.72786 | 4982 ft | 120 kts | 16° |
| 2026-04-25 08:35 | 16.99922 | -96.72582 | 4973 ft | 84 kts | 15° |
| 2026-04-25 08:35 | 17.00358 | -96.72454 | 4972 ft | 42 kts | 15° |
| 2026-04-25 08:35 | 17.00473 | -96.72409 | 4975 ft | 4 kts | 334° |
| 2026-04-25 08:35 | 17.00471 | -96.72420 | 4975 ft | 2 kts | 246° |
| 2026-04-25 08:36 | 17.00441 | -96.72430 | 4976 ft | 8 kts | 195° |
| 2026-04-25 08:36 | 17.00374 | -96.72449 | 4973 ft | 12 kts | 195° |
| 2026-04-25 08:36 | 17.00313 | -96.72421 | 4972 ft | 10 kts | 109° |
| 2026-04-25 08:36 | 17.00295 | -96.72355 | 4976 ft | 8 kts | 106° |
| 2026-04-25 08:37 | 17.00284 | -96.72315 | 4978 ft | 4 kts | 106° |
| 2026-04-25 08:37 | 17.00274 | -96.72288 | 4979 ft | 7 kts | 118° |
| 2026-04-25 08:37 | 17.00240 | -96.72288 | 4979 ft | 8 kts | 194° |
| 2026-04-25 08:37 | 17.00194 | -96.72284 | 4980 ft | 5 kts | 134° |
| 2026-04-25 08:38 | 17.00183 | -96.72245 | 4979 ft | 5 kts | 105° |
| 2026-04-25 08:38 | 17.00182 | -96.72240 | 4980 ft | 0 kts | 105° |